Time;durP1;ratioP1;P1;durP2;ratioP2;P2;SDS_P1;SDS_P2;PMS_P1;PMS_P2;Temp;Humidity;BMP_temperature;BMP_pressure;BME280_temperature;BME280_humidity;BME280_pressure;Samples;Min_cycle;Max_cycle;Signal;HPM_P1;HPM_P2
2022/07/18 00:00:09;;;;;;;3.70;1.10;;;15.50;1.00;;;;;;5051444;28;20190;-76
2022/07/18 00:02:34;;;;;;;3.43;1.30;;;15.50;1.00;;;;;;5051594;28;20535;-76
2022/07/18 00:05:00;;;;;;;3.10;1.30;;;15.50;99.90;;;;;;5051876;28;20207;-76
2022/07/18 00:07:26;;;;;;;1.77;1.00;;;15.40;99.90;;;;;;5053188;28;20186;-76
2022/07/18 00:09:52;;;;;;;2.47;1.20;;;15.30;99.90;;;;;;5051844;28;20183;-76
2022/07/18 00:12:18;;;;;;;2.37;1.20;;;15.30;99.90;;;;;;5053399;28;20179;-76
2022/07/18 00:14:43;;;;;;;2.00;1.10;;;15.30;99.90;;;;;;5052070;28;20586;-76
2022/07/18 00:17:09;;;;;;;4.40;1.30;;;15.20;1.00;;;;;;5052372;28;20258;-76
2022/07/18 00:19:36;;;;;;;3.33;1.27;;;15.10;1.00;;;;;;5053055;28;20175;-76
2022/07/18 00:22:02;;;;;;;3.53;1.33;;;15.10;1.00;;;;;;5053224;28;20582;-76
2022/07/18 00:24:28;;;;;;;2.53;1.07;;;15.10;99.90;;;;;;5052883;28;20287;-76
2022/07/18 00:26:54;;;;;;;3.90;1.27;;;15.50;1.00;;;;;;5053249;28;20262;-76
2022/07/18 00:29:19;;;;;;;2.30;1.20;;;15.00;1.00;;;;;;5053144;28;20681;-76
2022/07/18 00:31:45;;;;;;;2.70;1.20;;;15.00;99.90;;;;;;5051822;28;20257;-76
2022/07/18 00:34:11;;;;;;;1.63;1.00;;;14.90;1.00;;;;;;5052640;28;20199;-76
2022/07/18 00:36:36;;;;;;;1.50;1.00;;;14.90;1.00;;;;;;5053017;28;20219;-76
2022/07/18 00:39:03;;;;;;;2.90;1.13;;;14.90;99.90;;;;;;5052050;28;20179;-75
2022/07/18 00:41:28;;;;;;;2.27;1.20;;;14.90;99.90;;;;;;5051491;28;20180;-76
2022/07/18 00:43:54;;;;;;;3.23;1.10;;;14.90;1.00;;;;;;5055217;28;20249;-76
2022/07/18 00:46:24;;;;;;;3.77;1.07;;;14.80;1.00;;;;;;5055450;28;20191;-76
2022/07/18 00:48:51;;;;;;;2.20;0.80;;;14.80;1.00;;;;;;5055003;28;20274;-76
2022/07/18 00:51:17;;;;;;;3.73;1.30;;;14.70;1.00;;;;;;5056966;28;20180;-76
2022/07/18 00:53:44;;;;;;;1.70;1.03;;;14.70;99.90;;;;;;5056941;28;20570;-76
2022/07/18 00:56:11;;;;;;;1.20;1.10;;;14.70;99.90;;;;;;5055355;28;20614;-76
2022/07/18 00:58:36;;;;;;;2.27;0.80;;;14.60;85.10;;;;;;5056671;28;20176;-75
2022/07/18 01:03:47;;;;;;;1.37;1.00;;;14.60;99.90;;;;;;5055847;28;20222;-76
2022/07/18 01:06:12;;;;;;;4.40;1.10;;;14.50;1.00;;;;;;5055266;28;20561;-75
2022/07/18 01:08:41;;;;;;;4.53;1.57;;;14.50;1.00;;;;;;5056760;28;20186;-76
2022/07/18 01:11:07;;;;;;;2.83;1.30;;;14.50;1.00;;;;;;5056431;28;20642;-76
2022/07/18 01:13:32;;;;;;;1.93;1.10;;;14.40;1.00;;;;;;5056383;28;20202;-76
2022/07/18 01:15:58;;;;;;;2.87;1.30;;;14.40;1.00;;;;;;5056301;28;20276;-76
2022/07/18 01:18:23;;;;;;;2.77;1.10;;;14.40;1.00;;;;;;5056339;28;20176;-76
2022/07/18 01:20:49;;;;;;;3.73;1.57;;;14.40;99.90;;;;;;5055157;28;20604;-76
2022/07/18 01:23:15;;;;;;;3.23;1.13;;;14.40;1.00;;;;;;5056395;28;20669;-76
2022/07/18 01:25:40;;;;;;;1.70;1.03;;;14.30;99.90;;;;;;5056472;28;20230;-76
2022/07/18 01:28:06;;;;;;;2.83;0.90;;;14.30;1.00;;;;;;5054823;28;20183;-76
2022/07/18 01:30:32;;;;;;;3.97;1.20;;;14.30;33.10;;;;;;5054785;28;20183;-75
2022/07/18 01:32:59;;;;;;;3.20;1.00;;;14.30;11.40;;;;;;5053775;28;20194;-76
2022/07/18 01:35:27;;;;;;;2.27;1.10;;;14.20;99.90;;;;;;5056585;28;20203;-76
2022/07/18 01:37:54;;;;;;;1.37;0.90;;;14.20;99.90;;;;;;5055876;28;20183;-75
2022/07/18 01:40:19;;;;;;;3.67;1.40;;;14.20;99.90;;;;;;5055903;28;20183;-75
2022/07/18 01:42:45;;;;;;;2.50;1.07;;;14.20;83.90;;;;;;5053347;28;20183;-76
2022/07/18 01:45:11;;;;;;;2.97;1.33;;;14.10;99.90;;;;;;5055793;28;20178;-76
2022/07/18 01:47:37;;;;;;;2.63;1.07;;;14.10;99.90;;;;;;5055645;28;20191;-76
2022/07/18 01:50:03;;;;;;;2.47;1.20;;;14.00;1.00;;;;;;5055981;28;20616;-76
2022/07/18 01:52:29;;;;;;;2.90;1.03;;;14.10;1.00;;;;;;5055601;28;20180;-76
2022/07/18 01:54:54;;;;;;;4.30;1.37;;;14.00;99.90;;;;;;5053130;28;20313;-76
2022/07/18 01:57:20;;;;;;;3.33;1.20;;;14.00;99.90;;;;;;5055624;28;20175;-75
2022/07/18 01:59:45;;;;;;;2.03;1.27;;;13.90;1.00;;;;;;5037306;28;20238;-76
2022/07/18 02:02:11;;;;;;;2.70;1.10;;;13.90;99.90;;;;;;5035851;28;20168;-76
2022/07/18 02:07:21;;;;;;;2.73;1.23;;;13.90;1.00;;;;;;5036045;28;20163;-76
2022/07/18 02:09:47;;;;;;;1.97;1.10;;;13.90;1.00;;;;;;5035387;28;20187;-76
2022/07/18 02:12:13;;;;;;;4.10;1.10;;;13.90;99.90;;;;;;5035381;28;20634;-76
2022/07/18 02:14:38;;;;;;;6.30;1.20;;;13.80;99.90;;;;;;5037404;28;20299;-76
2022/07/18 02:17:04;;;;;;;4.13;1.20;;;13.80;99.90;;;;;;5055206;28;20176;-76
2022/07/18 02:19:29;;;;;;;3.30;1.10;;;13.80;61.50;;;;;;5053906;28;20171;-76
2022/07/18 02:21:55;;;;;;;1.33;1.00;;;13.80;46.70;;;;;;5055136;28;20286;-76
2022/07/18 02:24:20;;;;;;;3.03;1.00;;;13.70;1.00;;;;;;5055040;28;20274;-76
2022/07/18 02:26:46;;;;;;;3.37;1.27;;;13.70;1.00;;;;;;5055007;28;20183;-76
2022/07/18 02:29:12;;;;;;;2.43;1.30;;;13.60;99.90;;;;;;5054141;28;20628;-75
2022/07/18 02:31:37;;;;;;;2.33;1.10;;;13.60;99.90;;;;;;5054945;28;20183;-76
2022/07/18 02:34:09;;;;;;;1.67;1.00;;;13.60;1.00;;;;;;5053555;28;20199;-76
2022/07/18 02:36:39;;;;;;;3.10;1.20;;;13.60;1.00;;;;;;5055680;28;20584;-75
2022/07/18 02:39:06;;;;;;;1.97;1.13;;;13.50;99.90;;;;;;5053482;28;20175;-75
2022/07/18 02:41:32;;;;;;;3.53;1.00;;;13.40;1.00;;;;;;5053666;28;20191;-76
2022/07/18 02:43:58;;;;;;;1.27;1.07;;;13.40;1.00;;;;;;5052648;28;20199;-76
2022/07/18 02:46:24;;;;;;;1.40;1.20;;;13.40;1.00;;;;;;5054614;28;20637;-76
2022/07/18 02:48:49;;;;;;;1.60;0.93;;;13.50;1.00;;;;;;5054648;28;20172;-76
2022/07/18 02:51:15;;;;;;;4.07;1.33;;;13.40;1.00;;;;;;5055119;28;20183;-76
2022/07/18 02:53:40;;;;;;;2.33;1.30;;;13.40;99.90;;;;;;5054631;28;20196;-76
2022/07/18 02:56:06;;;;;;;1.70;1.27;;;13.30;99.90;;;;;;5053099;28;20199;-76
2022/07/18 02:58:32;;;;;;;2.10;1.23;;;13.30;1.00;;;;;;5052636;28;20199;-76
2022/07/18 03:00:58;;;;;;;1.90;1.20;;;13.30;1.00;;;;;;5054377;28;20203;-76
2022/07/18 03:03:23;;;;;;;1.57;1.23;;;13.30;1.00;;;;;;5054312;28;20638;-76
2022/07/18 03:05:49;;;;;;;2.07;1.20;;;13.20;1.00;;;;;;5054348;28;20182;-76
2022/07/18 03:08:14;;;;;;;2.60;1.20;;;13.20;1.00;;;;;;5054510;28;20187;-76
2022/07/18 03:10:40;;;;;;;6.20;1.50;;;13.10;1.00;;;;;;5054291;28;20180;-76
2022/07/18 03:13:05;;;;;;;1.23;0.93;;;13.10;1.00;;;;;;5052769;28;20227;-76
2022/07/18 03:15:31;;;;;;;1.53;1.10;;;13.10;1.00;;;;;;5052498;28;20215;-76
2022/07/18 03:17:57;;;;;;;3.63;1.23;;;13.00;1.00;;;;;;5054099;28;20273;-76
2022/07/18 03:20:22;;;;;;;5.87;1.10;;;13.00;1.00;;;;;;5052769;28;20180;-76
2022/07/18 03:22:48;;;;;;;1.30;1.10;;;13.00;1.00;;;;;;5054086;28;20176;-76
2022/07/18 03:25:13;;;;;;;3.13;1.20;;;13.00;1.00;;;;;;5053863;28;20184;-76
2022/07/18 03:27:39;;;;;;;1.47;1.20;;;12.90;1.00;;;;;;5054148;28;20270;-75
2022/07/18 03:30:05;;;;;;;1.30;1.03;;;12.90;1.00;;;;;;5052560;28;20349;-76
2022/07/18 03:32:30;;;;;;;3.80;1.00;;;12.90;1.00;;;;;;5053692;28;20308;-76
2022/07/18 03:34:56;;;;;;;1.43;1.10;;;12.90;1.00;;;;;;5053838;28;20199;-76
2022/07/18 03:37:21;;;;;;;1.93;1.10;;;12.80;1.00;;;;;;5053979;28;20180;-76
2022/07/18 03:39:47;;;;;;;1.83;1.00;;;12.80;1.00;;;;;;5053629;28;20183;-75
2022/07/18 03:42:13;;;;;;;1.40;0.90;;;12.70;1.00;;;;;;5052501;28;20191;-76
2022/07/18 03:44:38;;;;;;;1.90;1.23;;;12.60;1.00;;;;;;5052758;28;20681;-76
2022/07/18 03:47:04;;;;;;;1.87;1.13;;;12.70;1.00;;;;;;5053401;28;20654;-75
2022/07/18 03:49:29;;;;;;;1.97;0.97;;;12.70;4.10;;;;;;5052237;28;20249;-76
2022/07/18 03:51:55;;;;;;;1.67;1.10;;;12.70;30.20;;;;;;5053730;28;20180;-76
2022/07/18 03:54:22;;;;;;;3.97;1.43;;;12.70;43.20;;;;;;5053377;28;20621;-76
2022/07/18 03:56:47;;;;;;;2.03;1.40;;;12.70;45.70;;;;;;5053239;28;20203;-76
2022/07/18 03:59:13;;;;;;;2.80;1.13;;;12.70;25.10;;;;;;5051179;28;20230;-76
2022/07/18 04:01:38;;;;;;;1.60;1.00;;;12.70;19.50;;;;;;5052003;28;20176;-76
2022/07/18 04:04:04;;;;;;;1.73;1.30;;;12.70;24.20;;;;;;5053217;28;20274;-76
2022/07/18 04:06:30;;;;;;;3.27;1.33;;;12.70;54.00;;;;;;5053253;28;20179;-76
2022/07/18 04:08:56;;;;;;;2.03;1.23;;;12.70;19.30;;;;;;5053103;28;20214;-76
2022/07/18 04:11:23;;;;;;;3.57;1.20;;;12.60;44.50;;;;;;5053139;28;20661;-76
2022/07/18 04:13:53;;;;;;;2.53;1.13;;;12.60;55.10;;;;;;5051747;28;20585;-76
2022/07/18 04:16:19;;;;;;;1.83;1.30;;;12.60;99.90;;;;;;5051325;28;20210;-75
2022/07/18 04:18:44;;;;;;;4.67;1.30;;;12.60;99.90;;;;;;5052681;28;20171;-75
2022/07/18 04:21:10;;;;;;;1.70;1.40;;;12.80;99.90;;;;;;5053013;28;20179;-76
2022/07/18 04:23:35;;;;;;;3.13;1.03;;;12.60;99.90;;;;;;5052891;28;20196;-75
2022/07/18 04:26:03;;;;;;;3.43;1.00;;;12.60;99.90;;;;;;5051773;28;20581;-76
2022/07/18 04:28:29;;;;;;;4.73;1.23;;;12.60;99.90;;;;;;5051683;28;20665;-75
2022/07/18 04:30:54;;;;;;;2.50;1.20;;;12.60;99.90;;;;;;5052006;28;20176;-76
2022/07/18 04:33:20;;;;;;;2.70;1.33;;;12.60;99.90;;;;;;5051450;28;20203;-76
2022/07/18 04:35:46;;;;;;;4.43;1.53;;;12.60;99.90;;;;;;5054441;28;20202;-75
2022/07/18 04:38:11;;;;;;;1.93;1.23;;;12.60;99.90;;;;;;5052828;28;20190;-75
2022/07/18 04:40:37;;;;;;;2.30;1.10;;;12.60;99.90;;;;;;5051606;28;20175;-76
2022/07/18 04:43:04;;;;;;;2.87;1.30;;;12.60;99.90;;;;;;5052747;28;20175;-76
2022/07/18 04:45:30;;;;;;;1.97;1.00;;;12.60;99.90;;;;;;5052720;28;20266;-76
2022/07/18 04:47:55;;;;;;;2.07;1.10;;;12.70;99.90;;;;;;5051691;28;20278;-76
2022/07/18 04:50:22;;;;;;;1.67;1.10;;;12.70;99.90;;;;;;5052342;28;20215;-75
2022/07/18 04:52:48;;;;;;;1.57;1.10;;;12.70;99.90;;;;;;5052893;28;20179;-76
2022/07/18 04:55:16;;;;;;;2.57;1.27;;;12.70;99.90;;;;;;5051432;28;20204;-75
2022/07/18 04:57:42;;;;;;;2.10;1.30;;;12.80;99.90;;;;;;5052781;28;20230;-75
2022/07/18 05:00:11;;;;;;;1.37;1.20;;;12.80;99.90;;;;;;5052643;28;20225;-76
2022/07/18 05:02:44;;;;;;;1.47;1.20;;;12.80;99.90;;;;;;5052729;28;20186;-76
2022/07/18 05:05:11;;;;;;;3.40;1.20;;;12.80;99.90;;;;;;5051641;28;20558;-76
2022/07/18 05:07:38;;;;;;;4.63;1.50;;;12.90;99.90;;;;;;5052809;28;20180;-76
2022/07/18 05:10:07;;;;;;;1.43;1.07;;;12.90;99.90;;;;;;5051511;28;20179;-76
2022/07/18 05:12:33;;;;;;;2.73;1.10;;;13.00;99.90;;;;;;5052907;28;20179;-76
2022/07/18 05:14:59;;;;;;;1.93;1.30;;;13.00;99.90;;;;;;5052653;28;20235;-76
2022/07/18 05:17:24;;;;;;;1.67;1.13;;;13.00;99.90;;;;;;5052610;28;20172;-76
2022/07/18 05:19:50;;;;;;;2.50;1.10;;;13.10;99.90;;;;;;5052564;28;20591;-76
2022/07/18 05:22:15;;;;;;;1.63;1.07;;;13.10;99.90;;;;;;5037579;28;20184;-76
2022/07/18 05:24:41;;;;;;;1.83;1.10;;;13.20;99.90;;;;;;5050357;28;20207;-76
2022/07/18 05:27:06;;;;;;;2.23;1.10;;;13.20;99.90;;;;;;5039230;28;20204;-75
2022/07/18 05:29:32;;;;;;;1.80;1.03;;;13.20;99.90;;;;;;5048377;28;20263;-76
2022/07/18 05:31:58;;;;;;;2.27;1.40;;;13.30;99.90;;;;;;5056218;28;20174;-76
2022/07/18 05:34:24;;;;;;;2.30;1.00;;;13.30;99.90;;;;;;5055379;28;20210;-76
2022/07/18 05:36:50;;;;;;;3.07;1.30;;;13.40;99.90;;;;;;5056444;28;20653;-76
2022/07/18 05:39:15;;;;;;;1.30;1.10;;;13.40;99.90;;;;;;5056259;28;20211;-76
2022/07/18 05:41:41;;;;;;;1.53;1.00;;;13.50;99.90;;;;;;5056096;28;20160;-75
2022/07/18 05:44:06;;;;;;;2.43;1.33;;;13.60;99.90;;;;;;5054685;28;20199;-75
2022/07/18 05:46:32;;;;;;;3.03;1.67;;;13.70;99.90;;;;;;5055864;28;20195;-75
2022/07/18 05:48:57;;;;;;;1.37;1.03;;;13.70;99.90;;;;;;5056259;28;20172;-76
2022/07/18 05:51:23;;;;;;;1.77;0.93;;;13.70;99.90;;;;;;5054362;28;20563;-76
2022/07/18 05:53:49;;;;;;;1.93;1.10;;;13.80;99.90;;;;;;5054604;28;20249;-76
2022/07/18 05:56:15;;;;;;;2.60;1.10;;;13.90;99.90;;;;;;5055814;28;20253;-77
2022/07/18 05:58:41;;;;;;;2.60;1.07;;;14.00;99.90;;;;;;5056321;28;20172;-77
2022/07/18 06:01:07;;;;;;;2.63;1.00;;;14.00;99.90;;;;;;5056053;28;20174;-77
2022/07/18 06:03:32;;;;;;;2.20;1.23;;;14.10;99.90;;;;;;5054619;28;20206;-77
2022/07/18 06:05:58;;;;;;;1.20;1.07;;;14.20;99.90;;;;;;5054728;28;20171;-77
2022/07/18 06:08:23;;;;;;;2.43;1.17;;;14.30;99.90;;;;;;5056055;28;20218;-76
2022/07/18 06:10:49;;;;;;;2.30;1.10;;;14.40;99.90;;;;;;5055505;28;20171;-77
2022/07/18 06:13:14;;;;;;;2.57;1.10;;;14.60;99.90;;;;;;5054047;28;20206;-77
2022/07/18 06:15:40;;;;;;;1.27;0.80;;;14.70;99.90;;;;;;5055334;28;20204;-77
2022/07/18 06:18:06;;;;;;;5.30;1.40;;;14.90;99.90;;;;;;5055669;28;20597;-77
2022/07/18 06:20:31;;;;;;;3.23;1.03;;;15.00;99.90;;;;;;5055284;28;20199;-77
2022/07/18 06:22:57;;;;;;;2.03;0.80;;;15.20;99.90;;;;;;5053847;28;20586;-76
2022/07/18 06:25:22;;;;;;;1.73;0.97;;;15.40;24.00;;;;;;5055133;28;20178;-77
2022/07/18 06:27:48;;;;;;;3.17;1.20;;;15.60;99.90;;;;;;5053914;28;20171;-77
2022/07/18 06:30:13;;;;;;;3.07;1.00;;;15.80;1.00;;;;;;5055192;28;20175;-77
2022/07/18 06:32:39;;;;;;;2.20;1.00;;;16.00;99.90;;;;;;5055185;28;20250;-77
2022/07/18 06:35:06;;;;;;;3.63;1.10;;;16.20;38.30;;;;;;5053845;28;20691;-77
2022/07/18 06:37:32;;;;;;;0.70;0.53;;;16.40;1.00;;;;;;5055344;28;20586;-77
2022/07/18 06:39:57;;;;;;;3.73;0.80;;;16.50;1.00;;;;;;5055058;28;20259;-77
2022/07/18 06:42:23;;;;;;;2.70;1.20;;;16.70;1.00;;;;;;5054676;28;20168;-77
2022/07/18 06:44:48;;;;;;;2.37;1.00;;;16.80;1.00;;;;;;5053980;28;20214;-77
2022/07/18 06:47:14;;;;;;;2.60;0.90;;;17.00;1.00;;;;;;5055214;28;20700;-77
2022/07/18 06:49:39;;;;;;;5.13;1.00;;;17.10;1.00;;;;;;5055219;28;20175;-77
2022/07/18 06:52:05;;;;;;;4.47;1.00;;;17.30;99.90;;;;;;5053944;28;20180;-77
2022/07/18 06:54:33;;;;;;;2.50;1.00;;;17.40;1.00;;;;;;5053516;28;20191;-77
2022/07/18 06:56:59;;;;;;;2.70;1.00;;;17.50;58.40;;;;;;5055508;28;20184;-77
2022/07/18 06:59:25;;;;;;;1.20;0.77;;;17.60;1.00;;;;;;5055019;28;20652;-77
2022/07/18 07:01:50;;;;;;;2.33;0.87;;;17.80;1.00;;;;;;5055251;28;20168;-77
2022/07/18 07:04:16;;;;;;;1.70;0.90;;;17.90;99.90;;;;;;5053651;28;20196;-77
2022/07/18 07:06:42;;;;;;;3.03;0.80;;;18.00;1.00;;;;;;5054849;28;20171;-77
2022/07/18 07:09:07;;;;;;;2.27;0.93;;;18.20;99.90;;;;;;5054915;28;20522;-77
2022/07/18 07:11:33;;;;;;;3.13;1.10;;;18.30;99.90;;;;;;5053379;28;20522;-77
2022/07/18 07:13:58;;;;;;;3.47;1.00;;;18.50;99.90;;;;;;5054768;28;20684;-77
2022/07/18 07:16:24;;;;;;;3.80;0.90;;;18.50;99.90;;;;;;5054720;28;20561;-77
2022/07/18 07:18:49;;;;;;;1.87;0.77;;;18.70;99.90;;;;;;5056417;28;20230;-77
2022/07/18 07:21:15;;;;;;;2.77;1.03;;;18.80;1.00;;;;;;5059122;28;20182;-77
2022/07/18 07:23:41;;;;;;;1.97;0.80;;;18.90;1.00;;;;;;5053336;28;20191;-77
2022/07/18 07:26:07;;;;;;;2.67;0.90;;;19.10;1.00;;;;;;5054187;28;20294;-77
2022/07/18 07:28:33;;;;;;;2.63;1.40;;;19.20;99.90;;;;;;5053947;28;20174;-77
2022/07/18 07:30:59;;;;;;;3.30;1.07;;;19.30;99.90;;;;;;5053727;28;20168;-77
2022/07/18 07:33:25;;;;;;;2.00;0.73;;;19.40;99.90;;;;;;5053763;28;20191;-77
2022/07/18 07:35:50;;;;;;;1.80;0.87;;;19.50;99.90;;;;;;5053725;28;20192;-77
2022/07/18 07:38:19;;;;;;;4.17;0.80;;;19.60;99.90;;;;;;5052411;28;20625;-77
2022/07/18 07:40:47;;;;;;;2.10;0.90;;;19.70;99.90;;;;;;5053725;28;20198;-77
2022/07/18 07:43:15;;;;;;;5.30;0.87;;;19.80;99.90;;;;;;5053516;28;20184;-77
2022/07/18 07:45:41;;;;;;;1.57;0.70;;;19.90;25.40;;;;;;5052045;28;20741;-77
2022/07/18 07:48:07;;;;;;;3.57;0.83;;;20.00;1.00;;;;;;5053507;28;20168;-78
2022/07/18 07:50:33;;;;;;;1.80;0.90;;;20.20;68.00;;;;;;5053486;28;20274;-77
2022/07/18 07:53:00;;;;;;;2.40;0.70;;;20.20;1.00;;;;;;5052859;28;20233;-77
2022/07/18 07:55:26;;;;;;;3.33;1.00;;;20.30;1.00;;;;;;5052311;28;20267;-77
2022/07/18 07:57:52;;;;;;;0.80;0.67;;;20.50;1.00;;;;;;5053638;28;20202;-76
2022/07/18 08:00:18;;;;;;;2.10;1.00;;;20.60;1.00;;;;;;5053630;28;20328;-76
2022/07/18 08:02:56;;;;;;;1.90;0.90;;;20.70;1.00;;;;;;5052617;28;20245;-77
2022/07/18 08:05:22;;;;;;;3.10;1.00;;;20.80;1.00;;;;;;5052540;28;20171;-77
2022/07/18 08:07:47;;;;;;;1.50;0.70;;;20.90;1.00;;;;;;5055160;28;20182;-77
2022/07/18 08:10:13;;;;;;;2.23;0.93;;;20.90;1.00;;;;;;5053196;28;20172;-77
2022/07/18 08:12:39;;;;;;;2.77;1.30;;;21.10;1.00;;;;;;5053397;28;20658;-78
2022/07/18 08:15:05;;;;;;;3.67;1.23;;;21.10;1.00;;;;;;5053102;28;20294;-77
2022/07/18 08:17:31;;;;;;;1.67;1.00;;;21.20;1.00;;;;;;5052015;28;20171;-77
2022/07/18 08:19:56;;;;;;;2.03;0.97;;;21.40;99.90;;;;;;5053260;28;20266;-77
2022/07/18 08:22:22;;;;;;;3.53;0.87;;;21.60;99.90;;;;;;5053668;28;20552;-77
2022/07/18 08:24:47;;;;;;;1.67;0.97;;;21.50;99.90;;;;;;5051646;28;20545;-77
2022/07/18 08:27:13;;;;;;;4.57;1.17;;;21.60;99.90;;;;;;5052648;28;20182;-77
2022/07/18 08:29:39;;;;;;;5.70;0.90;;;21.70;99.90;;;;;;5051496;28;20172;-77
2022/07/18 08:32:05;;;;;;;1.37;0.87;;;21.90;69.60;;;;;;5052619;28;20175;-77
2022/07/18 08:34:31;;;;;;;2.50;1.33;;;21.90;99.90;;;;;;5051198;28;20613;-76
2022/07/18 08:36:56;;;;;;;2.33;1.00;;;22.00;4.00;;;;;;5051096;28;20286;-77
2022/07/18 08:39:22;;;;;;;2.07;1.10;;;22.10;1.00;;;;;;5051123;28;20262;-77
2022/07/18 08:41:51;;;;;;;2.53;1.20;;;22.20;1.00;;;;;;5051225;28;20210;-77
2022/07/18 08:44:17;;;;;;;2.83;0.80;;;22.40;1.00;;;;;;5052456;28;20215;-77
2022/07/18 08:46:49;;;;;;;2.10;1.10;;;22.40;1.00;;;;;;5052210;28;20233;-77
2022/07/18 08:49:15;;;;;;;3.73;1.17;;;22.60;1.00;;;;;;5051096;28;20167;-77
2022/07/18 08:51:42;;;;;;;2.43;1.27;;;22.80;1.00;;;;;;5052369;28;20174;-76
2022/07/18 08:54:09;;;;;;;3.50;1.30;;;22.90;1.00;;;;;;5051266;28;20414;-77
2022/07/18 08:56:34;;;;;;;2.70;0.93;;;23.00;1.00;;;;;;5052150;28;20219;-76
2022/07/18 08:59:02;;;;;;;2.13;1.17;;;23.20;1.00;;;;;;5052242;28;20207;-76
2022/07/18 09:01:29;;;;;;;2.10;0.83;;;23.40;1.00;;;;;;5050851;28;20262;-77
2022/07/18 09:06:43;;;;;;;3.37;1.20;;;23.60;1.00;;;;;;5056405;28;20221;-76
2022/07/18 09:09:12;;;;;;;1.73;0.90;;;23.80;99.90;;;;;;5054757;28;20188;-77
2022/07/18 09:11:53;;;;;;;3.50;0.97;;;23.90;1.00;;;;;;5055977;28;20199;-77
2022/07/18 09:14:33;;;;;;;3.67;0.90;;;23.90;99.90;;;;;;5054565;28;20664;-76
2022/07/18 09:17:10;;;;;;;1.57;1.03;;;24.00;99.90;;;;;;5055162;28;20539;-76
2022/07/18 09:19:38;;;;;;;2.63;1.00;;;24.00;99.90;;;;;;5056146;28;20652;-77
2022/07/18 09:22:19;;;;;;;2.53;1.33;;;24.20;99.90;;;;;;5055736;28;20709;-77
2022/07/18 09:25:01;;;;;;;1.90;1.00;;;24.10;99.90;;;;;;5055699;28;20233;-77
2022/07/18 09:27:28;;;;;;;5.87;1.00;;;24.40;99.90;;;;;;5055158;28;20550;-76
2022/07/18 09:30:26;;;;;;;4.03;1.40;;;24.50;99.90;;;;;;5054422;28;20207;-76
2022/07/18 09:32:53;;;;;;;2.13;1.13;;;24.60;99.90;;;;;;5054973;28;20172;-77
2022/07/18 09:35:20;;;;;;;3.30;1.10;;;24.90;99.90;;;;;;5054499;28;20223;-76
2022/07/18 09:38:14;;;;;;;4.97;1.40;;;24.90;99.90;;;;;;5054624;28;20176;-76
2022/07/18 09:40:45;;;;;;;2.43;1.30;;;24.90;99.90;;;;;;5053198;28;20187;-77
2022/07/18 09:43:16;;;;;;;1.60;0.98;;;25.10;41.40;;;;;;5055911;28;20729;-77
2022/07/18 09:45:48;;;;;;;5.03;1.30;;;25.10;24.10;;;;;;5055546;28;20172;-77
2022/07/18 09:48:22;;;;;;;2.63;1.10;;;25.20;3.60;;;;;;5054813;28;20191;-77
2022/07/18 09:50:58;;;;;;;2.38;1.13;;;25.30;1.00;;;;;;5047160;28;20597;-77
2022/07/18 09:53:26;;;;;;;5.60;1.42;;;25.50;1.00;;;;;;5034434;28;20202;-77
2022/07/18 09:55:57;;;;;;;2.03;1.08;;;25.70;1.00;;;;;;5035885;28;20202;-77
2022/07/18 09:58:25;;;;;;;1.67;1.10;;;25.60;1.00;;;;;;5038828;28;20565;-77
2022/07/18 10:00:52;;;;;;;2.40;1.00;;;25.70;1.00;;;;;;5054931;28;20183;-77
2022/07/18 10:03:19;;;;;;;1.45;0.90;;;25.90;1.00;;;;;;5055609;28;20199;-77
2022/07/18 10:05:47;;;;;;;3.92;0.90;;;26.40;1.00;;;;;;5055857;28;20176;-78
2022/07/18 10:08:15;;;;;;;4.00;1.20;;;26.40;1.00;;;;;;5057417;28;20524;-78
2022/07/18 10:10:43;;;;;;;3.22;1.08;;;26.50;1.00;;;;;;5059134;28;20617;-78
2022/07/18 10:13:10;;;;;;;1.45;0.93;;;26.70;1.00;;;;;;5057206;28;20195;-78
2022/07/18 10:15:39;;;;;;;3.42;0.95;;;26.80;1.00;;;;;;5057294;28;20684;-78
2022/07/18 10:18:08;;;;;;;3.75;0.80;;;26.90;1.00;;;;;;5052987;28;20179;-78
2022/07/18 10:20:37;;;;;;;2.53;1.10;;;27.00;1.00;;;;;;5058642;28;20642;-78
2022/07/18 10:23:10;;;;;;;1.77;0.98;;;27.10;1.00;;;;;;5057432;28;20167;-78
2022/07/18 10:25:36;;;;;;;0.85;0.77;;;27.20;1.00;;;;;;5057162;28;20186;-77
2022/07/18 10:28:10;;;;;;;1.15;0.88;;;27.60;1.00;;;;;;5055808;28;20183;-78
2022/07/18 10:30:46;;;;;;;2.92;1.25;;;27.70;1.00;;;;;;5058396;28;20228;-78
2022/07/18 10:33:46;;;;;;;2.10;1.00;;;27.70;1.00;;;;;;5056584;28;20199;-78
2022/07/18 10:36:20;;;;;;;1.23;0.80;;;27.90;1.00;;;;;;5082233;23;20598;-74
2022/07/18 10:39:14;;;;;;;1.35;0.73;;;28.00;1.00;;;;;;5073087;28;20183;-75
2022/07/18 10:41:39;;;;;;;2.85;1.13;;;28.00;1.00;;;;;;5074100;28;20205;-76
2022/07/18 10:44:34;;;;;;;1.77;0.90;;;28.10;1.00;;;;;;5075010;28;20709;-76
2022/07/18 10:47:10;;;;;;;2.15;0.90;;;28.00;1.00;;;;;;5052611;28;20187;-76
2022/07/18 10:49:47;;;;;;;1.95;0.98;;;27.90;1.00;;;;;;5054615;28;20152;-76
2022/07/18 10:52:25;;;;;;;1.85;1.00;;;28.00;1.00;;;;;;5054630;28;20167;-76
2022/07/18 10:55:05;;;;;;;3.03;1.00;;;28.00;1.00;;;;;;5053065;28;20183;-75
2022/07/18 10:57:42;;;;;;;2.60;0.90;;;28.10;1.00;;;;;;5053402;28;20181;-75
2022/07/18 11:00:13;;;;;;;2.13;1.38;;;28.30;1.00;;;;;;5053145;28;20203;-76
2022/07/18 11:02:47;;;;;;;3.45;1.15;;;28.40;1.00;;;;;;5053073;28;20168;-75
2022/07/18 11:05:25;;;;;;;1.95;1.13;;;28.40;1.00;;;;;;5054764;28;20565;-76
2022/07/18 11:08:03;;;;;;;1.48;1.00;;;28.60;1.00;;;;;;5053465;28;20179;-76
2022/07/18 11:13:28;;;;;;;2.30;1.20;;;28.70;1.00;;;;;;5054953;28;20175;-76
2022/07/18 11:16:14;;;;;;;8.82;1.17;;;28.70;1.00;;;;;;5052764;28;20241;-75
2022/07/18 11:18:43;;;;;;;1.85;0.95;;;28.80;1.00;;;;;;5051296;28;20183;-76
2022/07/18 11:21:20;;;;;;;3.92;1.20;;;29.00;1.00;;;;;;5053298;28;20180;-76
2022/07/18 11:23:49;;;;;;;1.48;0.95;;;29.00;1.00;;;;;;5054003;28;20199;-76
2022/07/18 11:26:16;;;;;;;1.15;0.77;;;29.00;1.00;;;;;;5053877;28;20203;-75
2022/07/18 11:28:41;;;;;;;2.45;1.00;;;29.10;1.00;;;;;;5051314;28;20559;-76
2022/07/18 11:31:12;;;;;;;1.67;0.90;;;29.10;1.00;;;;;;5053894;28;20163;-76
2022/07/18 11:33:41;;;;;;;7.82;1.17;;;29.20;1.00;;;;;;5054162;28;20706;-76
2022/07/18 11:36:09;;;;;;;2.42;1.02;;;29.30;1.00;;;;;;5053617;28;20203;-77
2022/07/18 11:38:37;;;;;;;4.05;1.20;;;29.40;1.00;;;;;;5052609;28;20561;-76
2022/07/18 11:41:03;;;;;;;1.52;1.00;;;29.40;1.00;;;;;;5053440;28;20206;-77
2022/07/18 11:43:29;;;;;;;4.50;1.25;;;29.60;1.00;;;;;;5054318;28;20160;-77
2022/07/18 11:46:06;;;;;;;2.63;1.05;;;29.70;1.00;;;;;;5053950;28;20195;-76
2022/07/18 11:48:32;;;;;;;4.63;1.00;;;29.80;1.00;;;;;;5051681;28;20641;-76
2022/07/18 11:50:58;;;;;;;2.90;1.20;;;29.80;1.00;;;;;;5054428;28;20633;-77
2022/07/18 11:53:25;;;;;;;1.63;1.10;;;29.80;1.00;;;;;;5054033;28;20267;-77
2022/07/18 11:55:52;;;;;;;3.70;1.27;;;29.70;1.00;;;;;;5054029;28;20618;-77
2022/07/18 11:58:18;;;;;;;2.90;1.10;;;29.80;1.00;;;;;;5052791;28;20176;-77
2022/07/18 12:00:44;;;;;;;3.50;1.13;;;29.70;1.00;;;;;;5053837;28;20226;-77
2022/07/18 12:03:22;;;;;;;5.22;1.10;;;29.70;1.00;;;;;;5053750;28;20233;-77
2022/07/18 12:05:52;;;;;;;2.55;1.00;;;29.70;1.00;;;;;;5053517;28;20211;-77
2022/07/18 12:08:26;;;;;;;2.40;1.10;;;29.70;1.00;;;;;;5049572;28;20545;-77
2022/07/18 12:11:04;;;;;;;1.25;0.95;;;29.70;1.00;;;;;;5044233;28;20543;-77
2022/07/18 12:13:59;;;;;;;1.27;0.90;;;29.70;1.00;;;;;;5044320;28;20641;-77
2022/07/18 12:16:31;;;;;;;1.77;1.13;;;29.70;1.00;;;;;;5037157;28;20208;-77
2022/07/18 12:18:58;;;;;;;1.30;1.00;;;29.70;1.00;;;;;;5044618;28;20672;-77
2022/07/18 12:21:24;;;;;;;3.60;1.00;;;29.70;1.00;;;;;;5041981;28;20262;-77
2022/07/18 12:23:50;;;;;;;4.53;1.00;;;29.70;1.00;;;;;;5042243;28;20255;-77
2022/07/18 12:26:31;;;;;;;2.10;1.10;;;29.60;1.00;;;;;;5043819;28;20237;-76
2022/07/18 12:29:05;;;;;;;5.00;1.08;;;29.60;1.00;;;;;;5041764;28;20271;-77
2022/07/18 12:31:45;;;;;;;2.08;0.95;;;29.50;1.00;;;;;;5043201;28;20224;-76
2022/07/18 12:34:13;;;;;;;3.08;1.48;;;29.40;1.00;;;;;;5041660;28;20233;-77
2022/07/18 12:36:53;;;;;;;7.07;1.33;;;29.50;1.00;;;;;;5040080;28;20304;-76
2022/07/18 12:39:26;;;;;;;4.00;1.30;;;29.70;1.00;;;;;;5043381;28;20727;-76
2022/07/18 12:41:52;;;;;;;3.10;1.25;;;29.70;1.00;;;;;;5044034;28;20663;-77
2022/07/18 12:44:18;;;;;;;3.88;1.40;;;29.80;1.00;;;;;;5041873;28;20172;-77
2022/07/18 12:46:43;;;;;;;4.95;1.50;;;29.90;1.00;;;;;;5035845;28;20203;-77
2022/07/18 12:49:09;;;;;;;1.83;1.15;;;29.90;1.00;;;;;;5044688;28;20183;-77
2022/07/18 12:51:34;;;;;;;4.15;1.23;;;30.10;1.00;;;;;;5032786;28;20782;-77
2022/07/18 12:54:00;;;;;;;3.20;1.00;;;30.20;1.00;;;;;;5030014;28;20188;-77
2022/07/18 12:56:25;;;;;;;3.90;1.30;;;30.30;1.00;;;;;;5031726;28;20211;-77
2022/07/18 12:58:51;;;;;;;3.40;1.13;;;30.50;1.00;;;;;;5051109;28;20191;-76
2022/07/18 13:01:16;;;;;;;1.45;1.10;;;30.60;1.00;;;;;;5051707;28;20237;-76
2022/07/18 13:03:42;;;;;;;4.03;1.10;;;30.50;1.00;;;;;;5051612;28;20591;-76
2022/07/18 13:06:07;;;;;;;3.38;1.42;;;30.60;1.00;;;;;;5051372;28;20199;-76